sensor_id;sensor_type;location;lat;lon;timestamp;temperature;humidity
22418;DHT22;11376;50.932;4.442;2023-01-25T00:00:55;3.50;99.90
22418;DHT22;11376;50.932;4.442;2023-01-25T00:03:28;3.50;99.90
22418;DHT22;11376;50.932;4.442;2023-01-25T00:05:58;3.60;99.90
22418;DHT22;11376;50.932;4.442;2023-01-25T00:08:25;3.70;99.90
22418;DHT22;11376;50.932;4.442;2023-01-25T00:10:50;3.80;99.90
22418;DHT22;11376;50.932;4.442;2023-01-25T00:13:16;3.70;99.90
22418;DHT22;11376;50.932;4.442;2023-01-25T00:15:41;3.60;99.90
22418;DHT22;11376;50.932;4.442;2023-01-25T00:18:07;3.60;99.90
22418;DHT22;11376;50.932;4.442;2023-01-25T00:20:33;3.60;99.90
22418;DHT22;11376;50.932;4.442;2023-01-25T00:22:58;3.70;99.90
22418;DHT22;11376;50.932;4.442;2023-01-25T00:25:24;3.70;99.90
22418;DHT22;11376;50.932;4.442;2023-01-25T00:27:49;3.80;99.90
22418;DHT22;11376;50.932;4.442;2023-01-25T00:30:15;3.90;99.90
22418;DHT22;11376;50.932;4.442;2023-01-25T00:33:05;3.90;99.90
22418;DHT22;11376;50.932;4.442;2023-01-25T00:35:31;3.90;99.90
22418;DHT22;11376;50.932;4.442;2023-01-25T00:38:01;3.90;99.90
22418;DHT22;11376;50.932;4.442;2023-01-25T00:40:27;3.80;99.90
22418;DHT22;11376;50.932;4.442;2023-01-25T00:42:53;3.80;99.90
22418;DHT22;11376;50.932;4.442;2023-01-25T00:45:18;3.70;99.90
22418;DHT22;11376;50.932;4.442;2023-01-25T00:47:44;3.70;99.90
22418;DHT22;11376;50.932;4.442;2023-01-25T00:50:10;3.50;99.90
22418;DHT22;11376;50.932;4.442;2023-01-25T00:52:35;3.60;99.90
22418;DHT22;11376;50.932;4.442;2023-01-25T00:55:01;3.70;99.90
22418;DHT22;11376;50.932;4.442;2023-01-25T00:57:27;3.70;99.90
22418;DHT22;11376;50.932;4.442;2023-01-25T00:59:53;3.40;99.90
22418;DHT22;11376;50.932;4.442;2023-01-25T01:02:18;3.10;99.90
22418;DHT22;11376;50.932;4.442;2023-01-25T01:04:44;3.00;99.90
22418;DHT22;11376;50.932;4.442;2023-01-25T01:07:13;3.00;99.90
22418;DHT22;11376;50.932;4.442;2023-01-25T01:09:39;3.00;99.90
22418;DHT22;11376;50.932;4.442;2023-01-25T01:12:05;2.90;99.90
22418;DHT22;11376;50.932;4.442;2023-01-25T01:14:30;3.00;99.90
22418;DHT22;11376;50.932;4.442;2023-01-25T01:16:56;3.00;99.90
22418;DHT22;11376;50.932;4.442;2023-01-25T01:19:22;3.10;99.90
22418;DHT22;11376;50.932;4.442;2023-01-25T01:21:47;3.20;99.90
22418;DHT22;11376;50.932;4.442;2023-01-25T01:24:13;3.30;99.90
22418;DHT22;11376;50.932;4.442;2023-01-25T01:26:38;3.30;99.90
22418;DHT22;11376;50.932;4.442;2023-01-25T01:29:04;3.50;99.90
22418;DHT22;11376;50.932;4.442;2023-01-25T01:31:30;3.50;99.90
22418;DHT22;11376;50.932;4.442;2023-01-25T01:33:56;3.70;99.90
22418;DHT22;11376;50.932;4.442;2023-01-25T01:36:24;3.80;99.90
22418;DHT22;11376;50.932;4.442;2023-01-25T01:38:51;3.70;99.90
22418;DHT22;11376;50.932;4.442;2023-01-25T01:41:17;3.50;99.90
22418;DHT22;11376;50.932;4.442;2023-01-25T01:43:43;3.20;99.90
22418;DHT22;11376;50.932;4.442;2023-01-25T01:49:18;2.80;99.90
22418;DHT22;11376;50.932;4.442;2023-01-25T01:51:49;2.90;99.90
22418;DHT22;11376;50.932;4.442;2023-01-25T01:54:18;3.20;99.90
22418;DHT22;11376;50.932;4.442;2023-01-25T01:57:01;3.40;99.90
22418;DHT22;11376;50.932;4.442;2023-01-25T01:59:34;3.40;99.90
22418;DHT22;11376;50.932;4.442;2023-01-25T02:02:01;3.40;99.90
22418;DHT22;11376;50.932;4.442;2023-01-25T02:04:27;3.50;99.90
22418;DHT22;11376;50.932;4.442;2023-01-25T02:07:07;3.60;99.90
22418;DHT22;11376;50.932;4.442;2023-01-25T02:09:36;3.60;99.90
22418;DHT22;11376;50.932;4.442;2023-01-25T02:12:03;3.60;99.90
22418;DHT22;11376;50.932;4.442;2023-01-25T02:14:30;3.60;99.90
22418;DHT22;11376;50.932;4.442;2023-01-25T02:16:56;3.50;99.90
22418;DHT22;11376;50.932;4.442;2023-01-25T02:25:20;3.40;99.90
22418;DHT22;11376;50.932;4.442;2023-01-25T02:30:46;3.40;99.90
22418;DHT22;11376;50.932;4.442;2023-01-25T02:33:12;3.30;99.90
22418;DHT22;11376;50.932;4.442;2023-01-25T02:38:34;3.30;99.90
22418;DHT22;11376;50.932;4.442;2023-01-25T02:41:23;3.40;99.90
22418;DHT22;11376;50.932;4.442;2023-01-25T02:43:49;3.50;99.90
22418;DHT22;11376;50.932;4.442;2023-01-25T02:48:45;3.40;99.90
22418;DHT22;11376;50.932;4.442;2023-01-25T02:51:11;3.30;99.90
22418;DHT22;11376;50.932;4.442;2023-01-25T02:53:36;3.20;99.90
22418;DHT22;11376;50.932;4.442;2023-01-25T02:56:02;3.20;99.90
22418;DHT22;11376;50.932;4.442;2023-01-25T02:58:28;3.20;99.90
22418;DHT22;11376;50.932;4.442;2023-01-25T03:00:54;3.30;99.90
22418;DHT22;11376;50.932;4.442;2023-01-25T03:03:20;3.30;99.90
22418;DHT22;11376;50.932;4.442;2023-01-25T03:05:46;3.30;99.90
22418;DHT22;11376;50.932;4.442;2023-01-25T03:08:11;3.20;99.90
22418;DHT22;11376;50.932;4.442;2023-01-25T03:10:37;3.20;99.90
22418;DHT22;11376;50.932;4.442;2023-01-25T03:13:02;3.20;99.90
22418;DHT22;11376;50.932;4.442;2023-01-25T03:15:28;3.10;99.90
22418;DHT22;11376;50.932;4.442;2023-01-25T03:17:55;3.20;99.90
22418;DHT22;11376;50.932;4.442;2023-01-25T03:20:21;3.10;99.90
22418;DHT22;11376;50.932;4.442;2023-01-25T03:22:47;3.10;99.90
22418;DHT22;11376;50.932;4.442;2023-01-25T03:25:13;3.00;99.90
22418;DHT22;11376;50.932;4.442;2023-01-25T03:27:41;3.00;99.90
22418;DHT22;11376;50.932;4.442;2023-01-25T03:30:08;3.00;99.90
22418;DHT22;11376;50.932;4.442;2023-01-25T03:32:33;3.00;99.90
22418;DHT22;11376;50.932;4.442;2023-01-25T03:34:59;3.10;99.90
22418;DHT22;11376;50.932;4.442;2023-01-25T03:37:25;3.10;99.90
22418;DHT22;11376;50.932;4.442;2023-01-25T03:39:58;3.00;99.90
22418;DHT22;11376;50.932;4.442;2023-01-25T03:42:24;2.70;99.90
22418;DHT22;11376;50.932;4.442;2023-01-25T03:44:50;2.70;99.90
22418;DHT22;11376;50.932;4.442;2023-01-25T03:47:15;2.80;99.90
22418;DHT22;11376;50.932;4.442;2023-01-25T03:49:41;2.90;99.90
22418;DHT22;11376;50.932;4.442;2023-01-25T03:52:07;3.00;99.90
22418;DHT22;11376;50.932;4.442;2023-01-25T03:54:33;2.90;99.90
22418;DHT22;11376;50.932;4.442;2023-01-25T03:56:58;2.60;99.90
22418;DHT22;11376;50.932;4.442;2023-01-25T03:59:24;2.60;99.90
22418;DHT22;11376;50.932;4.442;2023-01-25T04:01:50;2.60;99.90
22418;DHT22;11376;50.932;4.442;2023-01-25T04:04:16;2.80;99.90
22418;DHT22;11376;50.932;4.442;2023-01-25T04:06:42;3.00;99.90
22418;DHT22;11376;50.932;4.442;2023-01-25T04:09:08;3.10;99.90
22418;DHT22;11376;50.932;4.442;2023-01-25T04:11:34;3.10;99.90
22418;DHT22;11376;50.932;4.442;2023-01-25T04:13:59;3.10;99.90
22418;DHT22;11376;50.932;4.442;2023-01-25T04:16:25;3.10;99.90
22418;DHT22;11376;50.932;4.442;2023-01-25T04:18:52;3.00;99.90
22418;DHT22;11376;50.932;4.442;2023-01-25T04:21:18;3.00;99.90
22418;DHT22;11376;50.932;4.442;2023-01-25T04:23:43;3.00;99.90
22418;DHT22;11376;50.932;4.442;2023-01-25T04:26:10;3.00;99.90
22418;DHT22;11376;50.932;4.442;2023-01-25T04:28:38;3.00;99.90
22418;DHT22;11376;50.932;4.442;2023-01-25T04:31:04;3.10;99.90
22418;DHT22;11376;50.932;4.442;2023-01-25T04:33:31;3.20;99.90
22418;DHT22;11376;50.932;4.442;2023-01-25T04:35:59;3.20;99.90
22418;DHT22;11376;50.932;4.442;2023-01-25T04:38:24;3.10;99.90
22418;DHT22;11376;50.932;4.442;2023-01-25T04:40:51;3.00;99.90
22418;DHT22;11376;50.932;4.442;2023-01-25T04:43:18;2.90;99.90
22418;DHT22;11376;50.932;4.442;2023-01-25T04:45:44;2.90;99.90
22418;DHT22;11376;50.932;4.442;2023-01-25T04:48:10;2.90;99.90
22418;DHT22;11376;50.932;4.442;2023-01-25T04:50:37;2.90;99.90
22418;DHT22;11376;50.932;4.442;2023-01-25T04:53:04;2.90;99.90
22418;DHT22;11376;50.932;4.442;2023-01-25T04:55:30;2.90;99.90
22418;DHT22;11376;50.932;4.442;2023-01-25T04:57:55;2.60;99.90
22418;DHT22;11376;50.932;4.442;2023-01-25T05:00:21;2.50;99.90
22418;DHT22;11376;50.932;4.442;2023-01-25T05:02:47;2.50;99.90
22418;DHT22;11376;50.932;4.442;2023-01-25T05:05:12;2.50;99.90
22418;DHT22;11376;50.932;4.442;2023-01-25T05:07:38;2.50;99.90
22418;DHT22;11376;50.932;4.442;2023-01-25T05:10:04;2.60;99.90
22418;DHT22;11376;50.932;4.442;2023-01-25T05:12:30;2.40;99.90
22418;DHT22;11376;50.932;4.442;2023-01-25T05:14:56;2.40;99.90
22418;DHT22;11376;50.932;4.442;2023-01-25T05:17:22;2.40;99.90
22418;DHT22;11376;50.932;4.442;2023-01-25T05:19:47;2.30;99.90
22418;DHT22;11376;50.932;4.442;2023-01-25T05:22:14;1.80;99.90
22418;DHT22;11376;50.932;4.442;2023-01-25T05:24:41;1.50;99.90
22418;DHT22;11376;50.932;4.442;2023-01-25T05:27:08;1.40;99.90
22418;DHT22;11376;50.932;4.442;2023-01-25T05:29:42;1.50;99.90
22418;DHT22;11376;50.932;4.442;2023-01-25T05:32:19;1.80;99.90
22418;DHT22;11376;50.932;4.442;2023-01-25T05:34:45;2.10;99.90
22418;DHT22;11376;50.932;4.442;2023-01-25T05:37:13;2.20;99.90
22418;DHT22;11376;50.932;4.442;2023-01-25T05:39:39;2.40;99.90
22418;DHT22;11376;50.932;4.442;2023-01-25T05:42:10;2.50;99.90
22418;DHT22;11376;50.932;4.442;2023-01-25T05:44:36;2.50;99.90
22418;DHT22;11376;50.932;4.442;2023-01-25T05:47:02;2.50;99.90
22418;DHT22;11376;50.932;4.442;2023-01-25T05:49:27;2.50;99.90
22418;DHT22;11376;50.932;4.442;2023-01-25T05:51:53;2.50;99.90
22418;DHT22;11376;50.932;4.442;2023-01-25T05:54:18;2.40;99.90
22418;DHT22;11376;50.932;4.442;2023-01-25T05:56:44;2.50;99.90
22418;DHT22;11376;50.932;4.442;2023-01-25T05:59:11;2.50;99.90
22418;DHT22;11376;50.932;4.442;2023-01-25T06:01:37;2.50;99.90
22418;DHT22;11376;50.932;4.442;2023-01-25T06:04:03;2.60;99.90
22418;DHT22;11376;50.932;4.442;2023-01-25T06:06:29;2.60;99.90
22418;DHT22;11376;50.932;4.442;2023-01-25T06:08:54;2.60;99.90
22418;DHT22;11376;50.932;4.442;2023-01-25T06:11:22;2.60;99.90
22418;DHT22;11376;50.932;4.442;2023-01-25T06:13:48;2.60;99.90
22418;DHT22;11376;50.932;4.442;2023-01-25T06:16:15;2.60;99.90
22418;DHT22;11376;50.932;4.442;2023-01-25T06:18:42;2.60;99.90
22418;DHT22;11376;50.932;4.442;2023-01-25T06:21:08;2.50;99.90
22418;DHT22;11376;50.932;4.442;2023-01-25T06:23:33;2.40;99.90
22418;DHT22;11376;50.932;4.442;2023-01-25T06:26:01;2.30;99.90
22418;DHT22;11376;50.932;4.442;2023-01-25T06:28:31;2.20;99.90
22418;DHT22;11376;50.932;4.442;2023-01-25T06:31:07;2.20;99.90
22418;DHT22;11376;50.932;4.442;2023-01-25T06:33:33;2.00;99.90
22418;DHT22;11376;50.932;4.442;2023-01-25T06:36:13;2.00;99.90
22418;DHT22;11376;50.932;4.442;2023-01-25T06:38:39;1.80;99.90
22418;DHT22;11376;50.932;4.442;2023-01-25T06:41:08;1.70;99.90
22418;DHT22;11376;50.932;4.442;2023-01-25T06:43:34;1.70;99.90
22418;DHT22;11376;50.932;4.442;2023-01-25T06:46:02;1.70;99.90
22418;DHT22;11376;50.932;4.442;2023-01-25T06:48:30;1.70;99.90
22418;DHT22;11376;50.932;4.442;2023-01-25T06:50:58;1.70;99.90
22418;DHT22;11376;50.932;4.442;2023-01-25T06:53:29;1.80;99.90
22418;DHT22;11376;50.932;4.442;2023-01-25T06:56:09;1.80;99.90
22418;DHT22;11376;50.932;4.442;2023-01-25T06:58:35;2.00;99.90
22418;DHT22;11376;50.932;4.442;2023-01-25T07:01:04;2.10;99.90
22418;DHT22;11376;50.932;4.442;2023-01-25T07:03:30;1.90;99.90
22418;DHT22;11376;50.932;4.442;2023-01-25T07:06:01;1.80;99.90
22418;DHT22;11376;50.932;4.442;2023-01-25T07:08:27;1.80;99.90
22418;DHT22;11376;50.932;4.442;2023-01-25T07:10:58;1.90;99.90
22418;DHT22;11376;50.932;4.442;2023-01-25T07:13:25;2.00;99.90
22418;DHT22;11376;50.932;4.442;2023-01-25T07:15:56;1.70;99.90
22418;DHT22;11376;50.932;4.442;2023-01-25T07:18:22;1.80;99.90
22418;DHT22;11376;50.932;4.442;2023-01-25T07:20:49;1.80;99.90
22418;DHT22;11376;50.932;4.442;2023-01-25T07:23:15;2.00;99.90
22418;DHT22;11376;50.932;4.442;2023-01-25T07:25:48;2.20;99.90
22418;DHT22;11376;50.932;4.442;2023-01-25T07:28:14;2.40;99.90
22418;DHT22;11376;50.932;4.442;2023-01-25T07:30:40;2.30;99.90
22418;DHT22;11376;50.932;4.442;2023-01-25T07:33:07;2.30;99.90
22418;DHT22;11376;50.932;4.442;2023-01-25T07:35:33;2.50;99.90
22418;DHT22;11376;50.932;4.442;2023-01-25T07:37:58;2.60;99.90
22418;DHT22;11376;50.932;4.442;2023-01-25T07:40:24;2.40;99.90
22418;DHT22;11376;50.932;4.442;2023-01-25T07:42:50;2.00;99.90
22418;DHT22;11376;50.932;4.442;2023-01-25T07:45:17;1.90;99.90
22418;DHT22;11376;50.932;4.442;2023-01-25T07:47:42;1.90;99.90
22418;DHT22;11376;50.932;4.442;2023-01-25T07:50:09;1.90;99.90
22418;DHT22;11376;50.932;4.442;2023-01-25T07:52:34;2.00;99.90
22418;DHT22;11376;50.932;4.442;2023-01-25T07:55:00;2.10;99.90
22418;DHT22;11376;50.932;4.442;2023-01-25T07:57:26;2.20;99.90
22418;DHT22;11376;50.932;4.442;2023-01-25T07:59:53;2.30;99.90
22418;DHT22;11376;50.932;4.442;2023-01-25T08:02:18;2.20;99.90
22418;DHT22;11376;50.932;4.442;2023-01-25T08:04:44;2.30;99.90
22418;DHT22;11376;50.932;4.442;2023-01-25T08:07:10;2.30;99.90
22418;DHT22;11376;50.932;4.442;2023-01-25T08:09:36;2.40;99.90
22418;DHT22;11376;50.932;4.442;2023-01-25T08:12:01;2.50;99.90
22418;DHT22;11376;50.932;4.442;2023-01-25T08:14:27;2.60;99.90
22418;DHT22;11376;50.932;4.442;2023-01-25T08:16:53;2.70;99.90
22418;DHT22;11376;50.932;4.442;2023-01-25T08:19:18;2.80;99.90
22418;DHT22;11376;50.932;4.442;2023-01-25T08:21:46;2.80;99.90
22418;DHT22;11376;50.932;4.442;2023-01-25T08:24:11;2.70;99.90
22418;DHT22;11376;50.932;4.442;2023-01-25T08:26:37;2.90;99.90
22418;DHT22;11376;50.932;4.442;2023-01-25T08:29:04;2.80;99.90
22418;DHT22;11376;50.932;4.442;2023-01-25T08:31:32;2.80;99.90
22418;DHT22;11376;50.932;4.442;2023-01-25T08:33:58;2.80;99.90
22418;DHT22;11376;50.932;4.442;2023-01-25T08:36:24;2.80;99.90
22418;DHT22;11376;50.932;4.442;2023-01-25T08:38:56;2.90;99.90
22418;DHT22;11376;50.932;4.442;2023-01-25T08:41:23;3.00;99.90
22418;DHT22;11376;50.932;4.442;2023-01-25T08:43:51;2.80;99.90
22418;DHT22;11376;50.932;4.442;2023-01-25T08:46:18;2.80;99.90
22418;DHT22;11376;50.932;4.442;2023-01-25T08:48:44;2.60;99.90
22418;DHT22;11376;50.932;4.442;2023-01-25T08:51:12;2.60;99.90
22418;DHT22;11376;50.932;4.442;2023-01-25T08:53:37;2.60;99.90
22418;DHT22;11376;50.932;4.442;2023-01-25T08:56:09;2.60;99.90
22418;DHT22;11376;50.932;4.442;2023-01-25T08:58:37;2.80;99.90
22418;DHT22;11376;50.932;4.442;2023-01-25T09:01:08;2.90;99.90
22418;DHT22;11376;50.932;4.442;2023-01-25T09:03:36;2.90;99.90
22418;DHT22;11376;50.932;4.442;2023-01-25T09:06:02;3.00;99.90
22418;DHT22;11376;50.932;4.442;2023-01-25T09:08:28;3.00;99.90
22418;DHT22;11376;50.932;4.442;2023-01-25T09:10:53;2.90;99.90
22418;DHT22;11376;50.932;4.442;2023-01-25T09:13:19;2.90;99.90
22418;DHT22;11376;50.932;4.442;2023-01-25T09:15:44;2.80;99.90
22418;DHT22;11376;50.932;4.442;2023-01-25T09:18:11;3.00;99.90
22418;DHT22;11376;50.932;4.442;2023-01-25T09:20:39;2.90;99.90
22418;DHT22;11376;50.932;4.442;2023-01-25T09:23:05;2.90;99.90
22418;DHT22;11376;50.932;4.442;2023-01-25T09:25:30;3.00;99.90
22418;DHT22;11376;50.932;4.442;2023-01-25T09:27:56;2.90;99.90
22418;DHT22;11376;50.932;4.442;2023-01-25T09:30:22;3.00;99.90
22418;DHT22;11376;50.932;4.442;2023-01-25T09:32:48;3.10;99.90
22418;DHT22;11376;50.932;4.442;2023-01-25T09:35:15;3.00;99.90
22418;DHT22;11376;50.932;4.442;2023-01-25T09:37:40;3.10;99.90
22418;DHT22;11376;50.932;4.442;2023-01-25T09:40:16;2.90;99.90
22418;DHT22;11376;50.932;4.442;2023-01-25T09:43:00;2.70;99.90
22418;DHT22;11376;50.932;4.442;2023-01-25T09:45:35;2.70;99.90
22418;DHT22;11376;50.932;4.442;2023-01-25T09:50:35;2.80;99.90
22418;DHT22;11376;50.932;4.442;2023-01-25T09:56:11;2.50;99.90
22418;DHT22;11376;50.932;4.442;2023-01-25T09:58:39;2.30;99.90
22418;DHT22;11376;50.932;4.442;2023-01-25T10:03:58;2.20;99.90
22418;DHT22;11376;50.932;4.442;2023-01-25T10:06:42;2.30;99.90
22418;DHT22;11376;50.932;4.442;2023-01-25T10:09:41;2.20;99.90
22418;DHT22;11376;50.932;4.442;2023-01-25T10:12:14;1.90;99.90
22418;DHT22;11376;50.932;4.442;2023-01-25T10:14:40;1.70;99.90
22418;DHT22;11376;50.932;4.442;2023-01-25T10:31:45;1.90;99.90
22418;DHT22;11376;50.932;4.442;2023-01-25T10:34:23;1.90;99.90
22418;DHT22;11376;50.932;4.442;2023-01-25T10:36:53;1.70;99.90
22418;DHT22;11376;50.932;4.442;2023-01-25T10:39:20;1.60;99.90
22418;DHT22;11376;50.932;4.442;2023-01-25T10:41:52;1.40;99.90
22418;DHT22;11376;50.932;4.442;2023-01-25T10:44:18;1.50;99.90
22418;DHT22;11376;50.932;4.442;2023-01-25T10:46:55;1.60;99.90
22418;DHT22;11376;50.932;4.442;2023-01-25T10:49:45;1.70;99.90
22418;DHT22;11376;50.932;4.442;2023-01-25T10:54:42;2.20;99.90
22418;DHT22;11376;50.932;4.442;2023-01-25T10:57:13;2.20;99.90
22418;DHT22;11376;50.932;4.442;2023-01-25T10:59:43;2.00;99.90
22418;DHT22;11376;50.932;4.442;2023-01-25T11:05:33;2.10;99.90
22418;DHT22;11376;50.932;4.442;2023-01-25T11:08:31;2.00;99.90
22418;DHT22;11376;50.932;4.442;2023-01-25T11:10:58;1.80;99.90
22418;DHT22;11376;50.932;4.442;2023-01-25T11:13:27;1.50;99.90
22418;DHT22;11376;50.932;4.442;2023-01-25T11:15:54;1.50;99.90
22418;DHT22;11376;50.932;4.442;2023-01-25T11:18:34;1.50;99.90
22418;DHT22;11376;50.932;4.442;2023-01-25T11:21:14;1.40;99.90
22418;DHT22;11376;50.932;4.442;2023-01-25T11:23:43;1.40;99.90
22418;DHT22;11376;50.932;4.442;2023-01-25T11:28:37;1.40;99.90
22418;DHT22;11376;50.932;4.442;2023-01-25T11:31:09;1.50;99.90
22418;DHT22;11376;50.932;4.442;2023-01-25T11:33:35;1.30;99.90
22418;DHT22;11376;50.932;4.442;2023-01-25T11:38:27;1.50;99.90
22418;DHT22;11376;50.932;4.442;2023-01-25T11:41:08;1.60;99.90
22418;DHT22;11376;50.932;4.442;2023-01-25T11:46:53;1.70;99.90
22418;DHT22;11376;50.932;4.442;2023-01-25T11:52:23;1.50;99.90
22418;DHT22;11376;50.932;4.442;2023-01-25T11:55:24;1.40;99.90
22418;DHT22;11376;50.932;4.442;2023-01-25T11:58:10;1.20;99.90
22418;DHT22;11376;50.932;4.442;2023-01-25T12:03:45;1.20;99.90
22418;DHT22;11376;50.932;4.442;2023-01-25T12:06:24;1.40;99.90
22418;DHT22;11376;50.932;4.442;2023-01-25T12:17:45;1.10;99.90
22418;DHT22;11376;50.932;4.442;2023-01-25T12:20:38;1.00;99.90
22418;DHT22;11376;50.932;4.442;2023-01-25T12:23:34;0.90;99.90
22418;DHT22;11376;50.932;4.442;2023-01-25T12:26:37;0.90;99.90
22418;DHT22;11376;50.932;4.442;2023-01-25T12:29:31;1.00;99.90
22418;DHT22;11376;50.932;4.442;2023-01-25T12:32:11;1.10;99.90
22418;DHT22;11376;50.932;4.442;2023-01-25T12:34:41;1.20;99.90
22418;DHT22;11376;50.932;4.442;2023-01-25T12:37:36;1.50;99.90
22418;DHT22;11376;50.932;4.442;2023-01-25T12:40:17;1.80;99.90
22418;DHT22;11376;50.932;4.442;2023-01-25T12:42:54;2.20;99.90
22418;DHT22;11376;50.932;4.442;2023-01-25T12:45:24;2.40;99.90
22418;DHT22;11376;50.932;4.442;2023-01-25T12:48:12;2.50;99.90
22418;DHT22;11376;50.932;4.442;2023-01-25T12:50:39;2.80;99.90
22418;DHT22;11376;50.932;4.442;2023-01-25T12:53:26;2.70;99.90
22418;DHT22;11376;50.932;4.442;2023-01-25T12:55:53;2.10;99.90
22418;DHT22;11376;50.932;4.442;2023-01-25T13:09:21;1.70;99.90
22418;DHT22;11376;50.932;4.442;2023-01-25T13:11:48;1.70;99.90
22418;DHT22;11376;50.932;4.442;2023-01-25T13:16:47;2.10;99.90
22418;DHT22;11376;50.932;4.442;2023-01-25T13:19:40;2.30;99.90
22418;DHT22;11376;50.932;4.442;2023-01-25T13:22:11;2.70;99.90
22418;DHT22;11376;50.932;4.442;2023-01-25T13:27:32;2.10;99.90
22418;DHT22;11376;50.932;4.442;2023-01-25T13:32:53;2.30;99.90
22418;DHT22;11376;50.932;4.442;2023-01-25T13:35:31;2.30;99.90
22418;DHT22;11376;50.932;4.442;2023-01-25T13:40:44;2.60;99.90
22418;DHT22;11376;50.932;4.442;2023-01-25T13:43:20;2.80;99.90
22418;DHT22;11376;50.932;4.442;2023-01-25T13:45:51;3.00;99.90
22418;DHT22;11376;50.932;4.442;2023-01-25T13:48:20;3.20;99.90
22418;DHT22;11376;50.932;4.442;2023-01-25T13:50:49;2.80;99.90
22418;DHT22;11376;50.932;4.442;2023-01-25T13:55:47;2.30;99.90
22418;DHT22;11376;50.932;4.442;2023-01-25T13:58:34;2.20;99.90
22418;DHT22;11376;50.932;4.442;2023-01-25T14:01:03;2.60;99.90
22418;DHT22;11376;50.932;4.442;2023-01-25T14:03:48;2.30;99.90
22418;DHT22;11376;50.932;4.442;2023-01-25T14:06:24;2.50;99.90
22418;DHT22;11376;50.932;4.442;2023-01-25T14:08:52;2.60;99.90
22418;DHT22;11376;50.932;4.442;2023-01-25T14:11:20;2.70;99.90
22418;DHT22;11376;50.932;4.442;2023-01-25T14:14:15;2.60;99.90
22418;DHT22;11376;50.932;4.442;2023-01-25T14:16:42;2.70;99.90
22418;DHT22;11376;50.932;4.442;2023-01-25T14:19:26;2.70;99.90
22418;DHT22;11376;50.932;4.442;2023-01-25T14:22:32;2.60;99.90
22418;DHT22;11376;50.932;4.442;2023-01-25T14:25:11;2.10;99.90
22418;DHT22;11376;50.932;4.442;2023-01-25T14:27:46;1.80;99.90
22418;DHT22;11376;50.932;4.442;2023-01-25T14:30:27;1.90;99.90
22418;DHT22;11376;50.932;4.442;2023-01-25T14:32:58;2.20;99.90
22418;DHT22;11376;50.932;4.442;2023-01-25T14:35:37;2.50;99.90
22418;DHT22;11376;50.932;4.442;2023-01-25T14:38:39;2.40;99.90
22418;DHT22;11376;50.932;4.442;2023-01-25T14:43:52;1.60;99.90
22418;DHT22;11376;50.932;4.442;2023-01-25T14:46:29;1.40;99.90
22418;DHT22;11376;50.932;4.442;2023-01-25T14:52:09;1.50;99.90
22418;DHT22;11376;50.932;4.442;2023-01-25T14:54:52;1.50;99.90
22418;DHT22;11376;50.932;4.442;2023-01-25T14:57:39;1.50;99.90
22418;DHT22;11376;50.932;4.442;2023-01-25T15:00:26;1.50;99.90
22418;DHT22;11376;50.932;4.442;2023-01-25T15:03:05;1.60;99.90
22418;DHT22;11376;50.932;4.442;2023-01-25T15:05:44;1.40;99.90
22418;DHT22;11376;50.932;4.442;2023-01-25T15:10:49;1.30;99.90
22418;DHT22;11376;50.932;4.442;2023-01-25T15:15:50;1.50;99.90
22418;DHT22;11376;50.932;4.442;2023-01-25T15:18:42;1.50;99.90
22418;DHT22;11376;50.932;4.442;2023-01-25T15:23:46;1.00;99.90
22418;DHT22;11376;50.932;4.442;2023-01-25T15:26:13;1.00;99.90
22418;DHT22;11376;50.932;4.442;2023-01-25T15:28:39;0.90;99.90
22418;DHT22;11376;50.932;4.442;2023-01-25T15:31:05;0.80;99.90
22418;DHT22;11376;50.932;4.442;2023-01-25T15:33:32;0.80;99.90
22418;DHT22;11376;50.932;4.442;2023-01-25T15:35:58;0.80;99.90
22418;DHT22;11376;50.932;4.442;2023-01-25T15:38:25;0.80;99.90
22418;DHT22;11376;50.932;4.442;2023-01-25T15:40:51;0.70;99.90
22418;DHT22;11376;50.932;4.442;2023-01-25T15:43:18;0.60;99.90
22418;DHT22;11376;50.932;4.442;2023-01-25T15:45:48;0.60;99.90
22418;DHT22;11376;50.932;4.442;2023-01-25T15:50:54;0.90;99.90
22418;DHT22;11376;50.932;4.442;2023-01-25T15:53:22;0.90;99.90
22418;DHT22;11376;50.932;4.442;2023-01-25T15:55:57;0.60;99.90
22418;DHT22;11376;50.932;4.442;2023-01-25T15:58:34;0.40;99.90
22418;DHT22;11376;50.932;4.442;2023-01-25T16:01:01;0.50;99.90
22418;DHT22;11376;50.932;4.442;2023-01-25T16:03:27;0.50;99.90
22418;DHT22;11376;50.932;4.442;2023-01-25T16:05:57;0.30;99.90
22418;DHT22;11376;50.932;4.442;2023-01-25T16:08:23;0.40;99.90
22418;DHT22;11376;50.932;4.442;2023-01-25T16:10:49;0.20;99.90
22418;DHT22;11376;50.932;4.442;2023-01-25T16:13:14;0.20;99.90
22418;DHT22;11376;50.932;4.442;2023-01-25T16:15:40;0.10;99.90
22418;DHT22;11376;50.932;4.442;2023-01-25T16:18:11;0.10;99.90
22418;DHT22;11376;50.932;4.442;2023-01-25T16:20:38;0.10;99.90
22418;DHT22;11376;50.932;4.442;2023-01-25T16:23:03;0.20;99.90
22418;DHT22;11376;50.932;4.442;2023-01-25T16:25:29;0.20;99.90
22418;DHT22;11376;50.932;4.442;2023-01-25T16:27:55;0.30;99.90
22418;DHT22;11376;50.932;4.442;2023-01-25T16:30:25;0.10;99.90
22418;DHT22;11376;50.932;4.442;2023-01-25T16:32:52;0.00;99.90
22418;DHT22;11376;50.932;4.442;2023-01-25T16:35:19;0.00;99.90
22418;DHT22;11376;50.932;4.442;2023-01-25T16:37:45;0.10;99.90
22418;DHT22;11376;50.932;4.442;2023-01-25T16:40:21;0.30;99.90
22418;DHT22;11376;50.932;4.442;2023-01-25T16:42:47;0.30;99.90
22418;DHT22;11376;50.932;4.442;2023-01-25T16:45:13;0.00;99.90
22418;DHT22;11376;50.932;4.442;2023-01-25T16:47:41;0.00;99.90
22418;DHT22;11376;50.932;4.442;2023-01-25T16:50:18;-0.10;99.90
22418;DHT22;11376;50.932;4.442;2023-01-25T16:52:44;-0.10;99.90
22418;DHT22;11376;50.932;4.442;2023-01-25T16:55:13;-0.20;99.90
22418;DHT22;11376;50.932;4.442;2023-01-25T16:57:40;-0.20;99.90
22418;DHT22;11376;50.932;4.442;2023-01-25T17:00:09;-0.20;99.90
22418;DHT22;11376;50.932;4.442;2023-01-25T17:02:36;-0.20;99.90
22418;DHT22;11376;50.932;4.442;2023-01-25T17:05:03;-0.20;99.90
22418;DHT22;11376;50.932;4.442;2023-01-25T17:07:29;-0.20;99.90
22418;DHT22;11376;50.932;4.442;2023-01-25T17:09:55;-0.10;99.90
22418;DHT22;11376;50.932;4.442;2023-01-25T17:12:21;0.00;99.90
22418;DHT22;11376;50.932;4.442;2023-01-25T17:14:47;0.10;99.90
22418;DHT22;11376;50.932;4.442;2023-01-25T17:17:12;0.20;99.90
22418;DHT22;11376;50.932;4.442;2023-01-25T17:19:38;0.10;99.90
22418;DHT22;11376;50.932;4.442;2023-01-25T17:22:03;0.20;99.90
22418;DHT22;11376;50.932;4.442;2023-01-25T17:24:29;0.30;99.90
22418;DHT22;11376;50.932;4.442;2023-01-25T17:26:55;0.40;99.90
22418;DHT22;11376;50.932;4.442;2023-01-25T17:29:21;0.40;99.90
22418;DHT22;11376;50.932;4.442;2023-01-25T17:31:47;0.20;99.90
22418;DHT22;11376;50.932;4.442;2023-01-25T17:34:15;0.20;99.90
22418;DHT22;11376;50.932;4.442;2023-01-25T17:36:44;0.20;99.90
22418;DHT22;11376;50.932;4.442;2023-01-25T17:39:11;0.20;99.90
22418;DHT22;11376;50.932;4.442;2023-01-25T17:41:40;0.10;99.90
22418;DHT22;11376;50.932;4.442;2023-01-25T17:44:05;0.10;99.90
22418;DHT22;11376;50.932;4.442;2023-01-25T17:46:32;0.20;99.90
22418;DHT22;11376;50.932;4.442;2023-01-25T17:49:01;0.20;99.90